createdAt,value
2023-05-14T00:01:36.258Z,20.35
2023-05-14T00:04:08.709Z,20.34
2023-05-14T00:06:41.159Z,20.34
2023-05-14T00:09:14.016Z,20.33
2023-05-14T00:11:46.652Z,20.33
2023-05-14T00:14:19.146Z,20.32
2023-05-14T00:16:51.676Z,20.31
2023-05-14T00:19:24.109Z,20.31
2023-05-14T00:21:56.656Z,20.31
2023-05-14T00:24:29.165Z,20.28
2023-05-14T00:27:01.714Z,20.28
2023-05-14T00:29:34.324Z,20.28
2023-05-14T00:32:07.130Z,20.27
2023-05-14T00:34:39.663Z,20.27
2023-05-14T00:37:12.104Z,20.27
2023-05-14T00:39:44.670Z,20.26
2023-05-14T00:42:17.230Z,20.25
2023-05-14T00:44:49.819Z,20.25
2023-05-14T00:47:22.480Z,20.24
2023-05-14T00:49:55.365Z,20.24
2023-05-14T00:52:27.979Z,20.23
2023-05-14T00:55:04.149Z,20.22
2023-05-14T00:57:37.886Z,20.22
2023-05-14T01:00:10.898Z,20.21
2023-05-14T01:02:43.739Z,20.20
2023-05-14T01:05:17.457Z,20.20
2023-05-14T01:08:00.905Z,20.20
2023-05-14T01:10:42.442Z,20.17
2023-05-14T01:13:35.095Z,20.16
2023-05-14T01:16:12.979Z,20.15
2023-05-14T01:18:49.216Z,20.15
2023-05-14T01:21:38.517Z,20.14
2023-05-14T01:24:11.196Z,20.14
2023-05-14T01:26:43.793Z,20.12
2023-05-14T01:29:22.429Z,20.12
2023-05-14T01:31:58.933Z,20.10
2023-05-14T01:34:32.794Z,20.11
2023-05-14T01:37:29.986Z,20.10
2023-05-14T01:40:04.185Z,20.08
2023-05-14T01:42:38.433Z,20.07
2023-05-14T01:45:11.644Z,20.07
2023-05-14T01:47:44.086Z,20.06
2023-05-14T01:50:17.340Z,20.06
2023-05-14T01:52:51.433Z,20.04
2023-05-14T01:55:30.366Z,20.03
2023-05-14T01:58:02.865Z,20.03
2023-05-14T02:00:35.558Z,20.02
2023-05-14T02:03:08.210Z,20.01
2023-05-14T02:05:40.901Z,20.00
2023-05-14T02:08:13.624Z,20.00
2023-05-14T02:10:46.062Z,19.98
2023-05-14T02:13:18.861Z,19.98
2023-05-14T02:15:51.696Z,19.97
2023-05-14T02:18:24.420Z,19.96
2023-05-14T02:20:57.832Z,19.94
2023-05-14T02:23:38.222Z,19.94
2023-05-14T02:26:13.658Z,19.94
2023-05-14T02:28:46.119Z,19.93
2023-05-14T02:31:19.499Z,19.92
2023-05-14T02:33:52.139Z,19.92
2023-05-14T02:36:26.316Z,19.91
2023-05-14T02:38:59.934Z,19.90
2023-05-14T02:41:32.628Z,19.89
2023-05-14T02:44:05.555Z,19.88
2023-05-14T02:46:38.111Z,19.87
2023-05-14T02:49:13.692Z,19.87
2023-05-14T02:51:46.188Z,19.87
2023-05-14T02:54:18.829Z,19.87
2023-05-14T02:56:51.370Z,19.85
2023-05-14T02:59:24.928Z,19.85
2023-05-14T03:01:58.119Z,19.84
2023-05-14T03:04:31.437Z,19.84
2023-05-14T03:07:03.946Z,19.83
2023-05-14T03:09:38.289Z,19.82
2023-05-14T03:12:11.115Z,19.82
2023-05-14T03:14:46.352Z,19.80
2023-05-14T03:17:19.156Z,19.80
2023-05-14T03:19:51.789Z,19.79
2023-05-14T03:22:24.405Z,19.79
2023-05-14T03:24:57.075Z,19.78
2023-05-14T03:27:29.517Z,19.76
2023-05-14T03:30:02.334Z,19.76
2023-05-14T03:32:35.544Z,19.75
2023-05-14T03:35:08.403Z,19.74
2023-05-14T03:37:41.047Z,19.73
2023-05-14T03:40:13.618Z,19.72
2023-05-14T03:42:46.290Z,19.71
2023-05-14T03:45:18.797Z,19.71
2023-05-14T03:47:51.367Z,19.69
2023-05-14T03:50:25.746Z,19.69
2023-05-14T03:52:58.271Z,19.68
2023-05-14T03:55:30.847Z,19.68
2023-05-14T03:58:03.368Z,19.66
2023-05-14T04:00:36.004Z,19.68
2023-05-14T04:03:08.698Z,19.66
2023-05-14T04:05:41.186Z,19.64
2023-05-14T04:08:13.703Z,19.64
2023-05-14T04:10:46.262Z,19.63
2023-05-14T04:13:18.710Z,19.63
2023-05-14T04:15:51.277Z,19.62
2023-05-14T04:18:23.954Z,19.62
2023-05-14T04:20:56.579Z,19.61
2023-05-14T04:23:29.464Z,19.61
2023-05-14T04:26:02.098Z,19.61
2023-05-14T04:28:34.557Z,19.60
2023-05-14T04:31:07.089Z,19.59
2023-05-14T04:33:40.072Z,19.58
2023-05-14T04:36:16.086Z,19.58
2023-05-14T04:38:48.541Z,19.58
2023-05-14T04:41:21.174Z,19.58
2023-05-14T04:43:56.736Z,19.58
2023-05-14T04:46:29.324Z,19.58
2023-05-14T04:49:01.872Z,19.58
2023-05-14T04:51:34.346Z,19.57
2023-05-14T04:54:10.308Z,19.55
2023-05-14T04:56:42.730Z,19.55
2023-05-14T04:59:16.490Z,19.55
2023-05-14T05:01:49.232Z,19.53
2023-05-14T05:04:23.846Z,19.55
2023-05-14T05:06:58.658Z,19.53
2023-05-14T05:09:31.187Z,19.53
2023-05-14T05:12:03.974Z,19.53
2023-05-14T05:14:36.524Z,19.53
2023-05-14T05:17:09.211Z,19.53
2023-05-14T05:19:44.156Z,19.52
2023-05-14T05:22:17.255Z,19.51
2023-05-14T05:24:50.034Z,19.51
2023-05-14T05:27:22.784Z,19.51
2023-05-14T05:29:55.246Z,19.50
2023-05-14T05:32:27.944Z,19.51
2023-05-14T05:35:01.217Z,19.51
2023-05-14T05:37:33.966Z,19.51
2023-05-14T05:40:07.218Z,19.51
2023-05-14T05:42:45.668Z,19.50
2023-05-14T05:45:18.209Z,19.51
2023-05-14T05:47:50.937Z,19.51
2023-05-14T05:50:24.513Z,19.51
2023-05-14T05:52:59.133Z,19.51
2023-05-14T05:55:33.388Z,19.50
2023-05-14T05:58:05.793Z,19.50
2023-05-14T06:00:38.438Z,19.49
2023-05-14T06:03:11.653Z,19.50
2023-05-14T06:05:44.450Z,19.49
2023-05-14T06:08:16.933Z,19.49
2023-05-14T06:10:49.412Z,19.48
2023-05-14T06:13:21.863Z,19.48
2023-05-14T06:15:54.330Z,19.48
2023-05-14T06:18:27.099Z,19.47
2023-05-14T06:21:00.428Z,19.48
2023-05-14T06:23:34.686Z,19.48
2023-05-14T06:26:07.149Z,19.47
2023-05-14T06:28:39.767Z,19.47
2023-05-14T06:31:12.482Z,19.47
2023-05-14T06:33:45.328Z,19.48
2023-05-14T06:36:21.823Z,19.48
2023-05-14T06:38:54.338Z,19.49
2023-05-14T06:41:26.896Z,19.50
2023-05-14T06:43:59.624Z,19.49
2023-05-14T06:46:32.268Z,19.49
2023-05-14T06:49:04.942Z,19.49
2023-05-14T06:51:39.162Z,19.49
2023-05-14T06:54:11.948Z,19.49
2023-05-14T06:56:44.538Z,19.49
2023-05-14T06:59:17.266Z,19.49
2023-05-14T07:01:50.016Z,19.49
2023-05-14T07:04:22.735Z,19.50
2023-05-14T07:06:55.397Z,19.49
2023-05-14T07:09:28.381Z,19.50
2023-05-14T07:12:00.836Z,19.51
2023-05-14T07:14:33.429Z,19.51
2023-05-14T07:17:05.967Z,19.51
2023-05-14T07:19:38.495Z,19.51
2023-05-14T07:22:11.127Z,19.52
2023-05-14T07:24:46.815Z,19.53
2023-05-14T07:27:19.325Z,19.53
2023-05-14T07:29:51.873Z,19.53
2023-05-14T07:32:25.185Z,19.55
2023-05-14T07:34:57.726Z,19.55
2023-05-14T07:37:30.457Z,19.57
2023-05-14T07:40:03.138Z,19.58
2023-05-14T07:42:37.613Z,19.58
2023-05-14T07:45:10.631Z,19.58
2023-05-14T07:47:45.434Z,19.60
2023-05-14T07:50:18.758Z,19.61
2023-05-14T07:52:51.380Z,19.61
2023-05-14T07:55:23.815Z,19.63
2023-05-14T07:57:56.355Z,19.63
2023-05-14T08:00:29.055Z,19.66
2023-05-14T08:03:01.691Z,19.66
2023-05-14T08:05:34.227Z,19.67
2023-05-14T08:08:12.570Z,19.69
2023-05-14T08:10:45.277Z,19.69
2023-05-14T08:13:17.949Z,19.70
2023-05-14T08:15:50.553Z,19.72
2023-05-14T08:18:23.062Z,19.72
2023-05-14T08:20:56.188Z,19.74
2023-05-14T08:23:28.616Z,19.76
2023-05-14T08:26:01.648Z,19.76
2023-05-14T08:28:34.254Z,19.77
2023-05-14T08:31:06.956Z,19.78
2023-05-14T08:33:39.532Z,19.80
2023-05-14T08:36:11.959Z,19.81
2023-05-14T08:38:45.446Z,19.82
2023-05-14T08:41:19.279Z,19.82
2023-05-14T08:44:14.563Z,19.84
2023-05-14T08:46:49.263Z,19.84
2023-05-14T08:49:38.022Z,19.85
2023-05-14T08:52:11.703Z,19.86
2023-05-14T08:54:45.613Z,19.87
2023-05-14T08:57:20.155Z,19.87
2023-05-14T08:59:55.931Z,19.88
2023-05-14T09:02:30.496Z,19.88
2023-05-14T09:05:04.084Z,19.89
2023-05-14T09:07:36.719Z,19.90
2023-05-14T09:10:10.096Z,19.91
2023-05-14T09:12:42.809Z,19.92
2023-05-14T09:15:15.444Z,19.91
2023-05-14T09:17:48.717Z,19.93
2023-05-14T09:20:21.693Z,19.93
2023-05-14T09:22:54.830Z,19.94
2023-05-14T09:25:28.258Z,19.95
2023-05-14T09:28:06.046Z,19.96
2023-05-14T09:30:41.639Z,19.98
2023-05-14T09:33:26.208Z,20.00
2023-05-14T09:36:00.635Z,20.01
2023-05-14T09:38:34.076Z,20.01
2023-05-14T09:41:06.608Z,20.03
2023-05-14T09:43:39.122Z,20.03
2023-05-14T09:46:11.860Z,20.05
2023-05-14T09:48:46.105Z,20.07
2023-05-14T09:51:23.970Z,20.07
2023-05-14T09:53:57.251Z,20.10
2023-05-14T09:56:30.716Z,20.11
2023-05-14T09:59:04.468Z,20.11
2023-05-14T10:01:37.905Z,20.13
2023-05-14T10:04:12.020Z,20.13
2023-05-14T10:06:50.509Z,20.14
2023-05-14T10:09:28.593Z,20.17
2023-05-14T10:12:01.602Z,20.18
2023-05-14T10:14:43.229Z,20.19
2023-05-14T10:17:18.593Z,20.20
2023-05-14T10:19:54.484Z,20.23
2023-05-14T10:22:33.926Z,20.23
2023-05-14T10:25:07.036Z,20.24
2023-05-14T10:27:41.102Z,20.26
2023-05-14T10:30:13.608Z,20.28
2023-05-14T10:32:46.275Z,20.29
2023-05-14T10:35:25.450Z,20.31
2023-05-14T10:37:59.083Z,20.33
2023-05-14T10:40:31.951Z,20.34
2023-05-14T10:43:05.263Z,20.35
2023-05-14T10:45:37.812Z,20.37
2023-05-14T10:48:10.862Z,20.39
2023-05-14T10:50:43.599Z,20.40
2023-05-14T10:53:16.068Z,20.43
2023-05-14T10:55:48.554Z,20.43
2023-05-14T10:58:21.488Z,20.45
2023-05-14T11:00:55.707Z,20.48
2023-05-14T11:03:34.059Z,20.50
2023-05-14T11:06:07.951Z,20.51
2023-05-14T11:08:40.963Z,20.53
2023-05-14T11:11:13.592Z,20.55
2023-05-14T11:13:46.352Z,20.56
2023-05-14T11:16:24.088Z,20.57
2023-05-14T11:19:06.098Z,20.61
2023-05-14T11:21:39.142Z,20.62
2023-05-14T11:24:11.579Z,20.65
2023-05-14T11:26:45.421Z,20.67
2023-05-14T11:29:17.974Z,20.69
2023-05-14T11:31:50.833Z,20.70
2023-05-14T11:34:23.361Z,20.71
2023-05-14T11:36:56.119Z,20.74
2023-05-14T11:39:28.519Z,20.76
2023-05-14T11:42:20.439Z,20.77
2023-05-14T11:44:56.679Z,20.80
2023-05-14T11:47:29.620Z,20.81
2023-05-14T11:50:02.283Z,20.83
2023-05-14T11:52:39.959Z,20.86
2023-05-14T11:55:13.215Z,20.87
2023-05-14T11:57:45.873Z,20.90
2023-05-14T12:00:22.220Z,20.91
2023-05-14T12:02:55.077Z,20.95
2023-05-14T12:05:27.637Z,20.97
2023-05-14T12:08:00.321Z,20.99
2023-05-14T12:10:42.176Z,21.01
2023-05-14T12:13:18.335Z,21.03
2023-05-14T12:16:02.548Z,21.05
2023-05-14T12:18:35.225Z,21.08
2023-05-14T12:21:08.712Z,21.10
2023-05-14T12:23:41.284Z,21.11
2023-05-14T12:26:13.981Z,21.14
2023-05-14T12:28:47.680Z,21.15
2023-05-14T12:31:28.518Z,21.17
2023-05-14T12:34:01.168Z,21.19
2023-05-14T12:36:33.680Z,21.22
2023-05-14T12:39:07.513Z,21.23
2023-05-14T12:41:53.938Z,21.25
2023-05-14T12:44:27.983Z,21.26
2023-05-14T12:47:00.831Z,21.28
2023-05-14T12:49:33.473Z,21.29
2023-05-14T12:52:26.078Z,21.31
2023-05-14T12:55:11.869Z,21.32
2023-05-14T12:57:44.572Z,21.34
2023-05-14T13:00:19.941Z,21.35
2023-05-14T13:02:52.521Z,21.37
2023-05-14T13:05:25.356Z,21.39
2023-05-14T13:07:59.392Z,21.40
2023-05-14T13:10:31.935Z,21.44
2023-05-14T13:13:04.552Z,21.45
2023-05-14T13:15:37.143Z,21.47
2023-05-14T13:18:17.660Z,21.49
2023-05-14T13:20:50.260Z,21.51
2023-05-14T13:23:22.854Z,21.53
2023-05-14T13:25:55.673Z,21.55
2023-05-14T13:28:28.189Z,21.56
2023-05-14T13:31:20.363Z,21.58
2023-05-14T13:33:57.923Z,21.60
2023-05-14T13:36:32.270Z,21.60
2023-05-14T13:39:27.380Z,21.63
2023-05-14T13:42:00.120Z,21.63
2023-05-14T13:44:32.653Z,21.63
2023-05-14T13:47:20.918Z,21.64
2023-05-14T13:49:59.343Z,21.63
2023-05-14T13:52:31.864Z,21.63
2023-05-14T13:58:27.871Z,21.62
2023-05-14T14:01:00.501Z,21.61
2023-05-14T14:03:33.154Z,21.62
2023-05-14T14:06:06.751Z,21.61
2023-05-14T14:08:39.420Z,21.61
2023-05-14T14:11:13.652Z,21.63
2023-05-14T14:13:47.871Z,21.64
2023-05-14T14:16:21.663Z,21.64
2023-05-14T14:18:54.389Z,21.65
2023-05-14T14:21:27.115Z,21.67
2023-05-14T14:23:59.600Z,21.68
2023-05-14T14:26:48.612Z,21.69
2023-05-14T14:29:28.384Z,21.70
2023-05-14T14:32:10.035Z,21.72
2023-05-14T14:34:42.548Z,21.74
2023-05-14T14:37:58.510Z,21.74
2023-05-14T14:40:48.687Z,21.75
2023-05-14T14:43:27.354Z,21.76
2023-05-14T14:46:00.539Z,21.77
2023-05-14T14:52:36.765Z,21.77
2023-05-14T14:55:15.313Z,21.78
2023-05-14T14:57:47.869Z,21.78
2023-05-14T15:00:33.822Z,21.79
2023-05-14T15:06:14.320Z,21.79
2023-05-14T15:11:44.772Z,21.79
2023-05-14T15:14:29.425Z,21.79
2023-05-14T15:17:01.969Z,21.79
2023-05-14T15:19:35.792Z,21.78
2023-05-14T15:24:57.921Z,21.78
2023-05-14T15:27:35.945Z,21.78
2023-05-14T15:30:09.063Z,21.77
2023-05-14T15:32:42.093Z,21.76
2023-05-14T15:35:32.843Z,21.74
2023-05-14T15:38:11.214Z,21.74
2023-05-14T15:40:43.802Z,21.73
2023-05-14T15:46:14.508Z,21.73
2023-05-14T15:51:55.253Z,21.72
2023-05-14T15:54:40.094Z,21.73
2023-05-14T15:57:13.425Z,21.73
2023-05-14T15:59:52.021Z,21.74
2023-05-14T16:02:39.957Z,21.73
2023-05-14T16:05:15.520Z,21.74
2023-05-14T16:07:54.089Z,21.74
2023-05-14T16:11:24.094Z,21.73
2023-05-14T16:14:02.733Z,21.74
2023-05-14T16:16:54.247Z,21.75
2023-05-14T16:19:29.571Z,21.74
2023-05-14T16:22:02.330Z,21.73
2023-05-14T16:24:56.463Z,21.73
2023-05-14T16:30:57.209Z,21.74
2023-05-14T16:33:41.715Z,21.72
2023-05-14T16:36:19.629Z,21.72
2023-05-14T16:39:19.918Z,21.72
2023-05-14T16:45:07.371Z,21.71
2023-05-14T16:47:48.062Z,21.72
2023-05-14T16:50:26.217Z,21.71
2023-05-14T16:53:09.961Z,21.71
2023-05-14T16:55:50.922Z,21.71
2023-05-14T16:58:27.483Z,21.70
2023-05-14T17:01:27.916Z,21.70
2023-05-14T17:06:59.656Z,21.70
2023-05-14T17:09:33.266Z,21.68
2023-05-14T17:12:13.590Z,21.68
2023-05-14T17:14:46.327Z,21.67
2023-05-14T17:17:38.134Z,21.67
2023-05-14T17:20:11.501Z,21.67
2023-05-14T17:22:52.217Z,21.67
2023-05-14T17:25:26.654Z,21.68
2023-05-14T17:31:42.281Z,21.65
2023-05-14T17:34:21.199Z,21.66
2023-05-14T17:37:57.877Z,21.65
2023-05-14T17:40:31.497Z,21.64
2023-05-14T17:43:04.400Z,21.63
2023-05-14T17:45:52.495Z,21.64
2023-05-14T17:48:26.753Z,21.62
2023-05-14T17:50:59.320Z,21.61
2023-05-14T17:54:16.392Z,21.61
2023-05-14T17:57:08.320Z,21.60
2023-05-14T18:03:08.126Z,21.58
2023-05-14T18:05:40.988Z,21.58
2023-05-14T18:08:25.063Z,21.57
2023-05-14T18:11:54.728Z,21.58
2023-05-14T18:14:31.521Z,21.57
2023-05-14T18:17:17.516Z,21.56
2023-05-14T18:20:00.328Z,21.56
2023-05-14T18:22:52.375Z,21.55
2023-05-14T18:25:36.141Z,21.56
2023-05-14T18:28:09.633Z,21.55
2023-05-14T18:44:34.967Z,21.53
2023-05-14T18:47:07.999Z,21.53
2023-05-14T18:49:42.240Z,21.52
2023-05-14T18:52:27.350Z,21.52
2023-05-14T18:55:14.289Z,21.52
2023-05-14T18:57:47.007Z,21.51
2023-05-14T19:00:19.884Z,21.51
2023-05-14T19:03:04.558Z,21.51
2023-05-14T19:05:43.342Z,21.50
2023-05-14T19:08:18.633Z,21.51
2023-05-14T19:11:03.584Z,21.50
2023-05-14T19:13:36.131Z,21.51
2023-05-14T19:16:21.104Z,21.51
2023-05-14T19:18:54.108Z,21.49
2023-05-14T19:21:42.085Z,21.49
2023-05-14T19:27:06.995Z,21.47
2023-05-14T19:29:41.836Z,21.46
2023-05-14T19:32:26.410Z,21.45
2023-05-14T19:39:12.322Z,21.43
2023-05-14T19:41:45.142Z,21.42
2023-05-14T19:44:56.322Z,21.40
2023-05-14T19:47:32.046Z,21.39
2023-05-14T19:50:06.050Z,21.38
2023-05-14T19:52:47.302Z,21.37
2023-05-14T19:55:28.329Z,21.36
2023-05-14T19:58:00.947Z,21.34
2023-05-14T20:03:41.606Z,21.32
2023-05-14T20:07:17.587Z,21.32
2023-05-14T20:14:57.405Z,21.30
2023-05-14T20:17:32.615Z,21.28
2023-05-14T20:23:20.691Z,21.25
2023-05-14T20:26:27.358Z,21.24
2023-05-14T20:28:58.294Z,21.23
2023-05-14T20:35:02.805Z,21.21
2023-05-14T20:40:29.733Z,21.20
2023-05-14T20:43:05.621Z,21.18
2023-05-14T20:51:33.115Z,21.16
2023-05-14T20:54:06.056Z,21.15
2023-05-14T20:56:38.572Z,21.15
2023-05-14T20:59:17.344Z,21.14
2023-05-14T21:01:49.904Z,21.14
2023-05-14T21:04:32.114Z,21.13
2023-05-14T21:07:18.619Z,21.13
2023-05-14T21:10:08.146Z,21.12
2023-05-14T21:12:49.916Z,21.10
2023-05-14T21:15:42.398Z,21.11
2023-05-14T21:18:27.011Z,21.09
2023-05-14T21:20:59.759Z,21.09
2023-05-14T21:23:35.138Z,21.08
2023-05-14T21:26:07.833Z,21.07
2023-05-14T21:28:40.609Z,21.06
2023-05-14T21:31:13.237Z,21.06
2023-05-14T21:33:46.022Z,21.04
2023-05-14T21:36:23.913Z,21.05
2023-05-14T21:38:56.545Z,21.03
2023-05-14T21:41:40.149Z,21.03
2023-05-14T21:44:14.410Z,21.02
2023-05-14T21:46:47.530Z,21.02
2023-05-14T21:49:20.207Z,20.99
2023-05-14T21:52:21.910Z,20.99
2023-05-14T21:55:08.698Z,20.98
2023-05-14T21:57:41.373Z,20.96
2023-05-14T22:00:24.461Z,20.95
2023-05-14T22:03:27.231Z,20.94
2023-05-14T22:14:34.752Z,20.89
2023-05-14T22:17:07.396Z,20.88
2023-05-14T22:19:39.908Z,20.88
2023-05-14T22:22:12.764Z,20.87
2023-05-14T22:24:45.564Z,20.86
2023-05-14T22:27:18.926Z,20.85
2023-05-14T22:29:52.548Z,20.84
2023-05-14T22:32:25.435Z,20.85
2023-05-14T22:34:58.014Z,20.83
2023-05-14T22:40:18.863Z,20.83
2023-05-14T22:42:53.458Z,20.82
2023-05-14T22:45:26.234Z,20.82
2023-05-14T22:47:59.502Z,20.79
2023-05-14T22:50:44.429Z,20.80
2023-05-14T22:53:16.990Z,20.78
2023-05-14T22:55:49.639Z,20.78
2023-05-14T22:58:37.607Z,20.76
2023-05-14T23:01:12.238Z,20.75
2023-05-14T23:03:44.998Z,20.75
2023-05-14T23:06:19.746Z,20.74
2023-05-14T23:08:59.281Z,20.73
2023-05-14T23:11:31.906Z,20.72
2023-05-14T23:16:53.417Z,20.71
2023-05-14T23:19:26.656Z,20.70
2023-05-14T23:21:59.582Z,20.69
2023-05-14T23:24:32.150Z,20.68
2023-05-14T23:27:05.567Z,20.67
2023-05-14T23:29:38.689Z,20.67
2023-05-14T23:32:14.482Z,20.66
2023-05-14T23:34:47.340Z,20.65
2023-05-14T23:37:22.027Z,20.65
2023-05-14T23:39:54.707Z,20.65
2023-05-14T23:42:27.324Z,20.63
2023-05-14T23:45:00.105Z,20.62
2023-05-14T23:47:33.017Z,20.61
2023-05-14T23:50:06.069Z,20.61
2023-05-14T23:55:34.896Z,20.58
2023-05-14T23:58:16.837Z,20.58
